createdAt,value
2022-09-26T00:01:16.507Z,14.30
2022-09-26T00:03:47.859Z,14.30
2022-09-26T00:06:16.181Z,14.30
2022-09-26T00:08:42.833Z,14.30
2022-09-26T00:11:11.870Z,14.30
2022-09-26T00:13:40.804Z,14.30
2022-09-26T00:16:09.150Z,14.30
2022-09-26T00:18:36.275Z,14.20
2022-09-26T00:21:04.711Z,14.20
2022-09-26T00:23:31.488Z,14.20
2022-09-26T00:25:58.656Z,14.20
2022-09-26T00:28:26.001Z,14.20
2022-09-26T00:30:52.717Z,14.20
2022-09-26T00:33:19.661Z,14.20
2022-09-26T00:35:53.744Z,14.20
2022-09-26T00:38:20.464Z,14.20
2022-09-26T00:40:48.416Z,14.10
2022-09-26T00:43:32.147Z,14.20
2022-09-26T00:46:05.252Z,14.10
2022-09-26T00:48:34.458Z,14.10
2022-09-26T00:51:01.555Z,14.10
2022-09-26T00:53:35.511Z,14.10
2022-09-26T00:56:07.527Z,14.10
2022-09-26T00:58:43.053Z,14.10
2022-09-26T01:01:10.299Z,14.10
2022-09-26T01:03:39.173Z,14.10
2022-09-26T01:06:06.127Z,14.10
2022-09-26T01:08:36.888Z,14.10
2022-09-26T01:11:04.360Z,14.10
2022-09-26T01:13:33.102Z,14.10
2022-09-26T01:16:00.124Z,14.00
2022-09-26T01:18:27.519Z,14.00
2022-09-26T01:21:15.431Z,14.00
2022-09-26T01:23:55.052Z,14.00
2022-09-26T01:26:48.123Z,13.90
2022-09-26T01:29:35.424Z,13.90
2022-09-26T01:32:49.496Z,13.90
2022-09-26T01:35:42.559Z,13.90
2022-09-26T01:38:24.591Z,13.90
2022-09-26T01:41:17.110Z,13.90
2022-09-26T01:44:04.899Z,13.80
2022-09-26T01:46:42.947Z,13.90
2022-09-26T01:49:12.082Z,13.80
2022-09-26T01:51:55.536Z,13.80
2022-09-26T01:54:28.585Z,13.80
2022-09-26T01:56:58.390Z,13.80
2022-09-26T01:59:42.688Z,13.80
2022-09-26T02:02:21.476Z,13.80
2022-09-26T02:04:52.553Z,13.70
2022-09-26T02:07:28.629Z,13.80
2022-09-26T02:10:02.546Z,13.70
2022-09-26T02:12:37.103Z,13.80
2022-09-26T02:15:08.743Z,13.80
2022-09-26T02:17:44.084Z,13.70
2022-09-26T02:20:16.565Z,13.60
2022-09-26T02:22:43.341Z,13.70
2022-09-26T02:25:11.711Z,13.60
2022-09-26T02:27:38.632Z,13.60
2022-09-26T02:30:07.128Z,13.60
2022-09-26T02:32:34.161Z,13.60
2022-09-26T02:35:22.385Z,13.60
2022-09-26T02:37:49.614Z,13.60
2022-09-26T02:40:16.789Z,13.50
2022-09-26T02:42:58.087Z,13.60
2022-09-26T02:45:36.041Z,13.60
2022-09-26T02:48:27.913Z,13.60
2022-09-26T02:51:20.628Z,13.50
2022-09-26T02:54:05.840Z,13.50
2022-09-26T02:56:56.730Z,13.50
2022-09-26T02:59:35.130Z,13.50
2022-09-26T03:02:10.133Z,13.50
2022-09-26T03:04:56.110Z,13.60
2022-09-26T03:07:35.609Z,13.60
2022-09-26T03:10:04.830Z,13.60
2022-09-26T03:12:32.935Z,13.60
2022-09-26T03:15:02.178Z,13.50
2022-09-26T03:17:31.112Z,13.50
2022-09-26T03:20:08.180Z,13.50
2022-09-26T03:22:34.953Z,13.50
2022-09-26T03:25:02.741Z,13.50
2022-09-26T03:27:32.037Z,13.40
2022-09-26T03:29:59.500Z,13.40
2022-09-26T03:32:26.180Z,13.40
2022-09-26T03:34:55.418Z,13.40
2022-09-26T03:37:22.123Z,13.40
2022-09-26T03:39:51.324Z,13.50
2022-09-26T03:42:18.033Z,13.30
2022-09-26T03:44:44.726Z,13.30
2022-09-26T03:47:11.676Z,13.10
2022-09-26T03:49:38.916Z,13.30
2022-09-26T03:52:07.325Z,13.40
2022-09-26T03:54:34.061Z,13.30
2022-09-26T03:57:00.723Z,13.30
2022-09-26T03:59:27.412Z,13.20
2022-09-26T04:01:54.565Z,13.20
2022-09-26T04:04:21.419Z,13.10
2022-09-26T04:06:50.997Z,13.00
2022-09-26T04:09:17.984Z,13.10
2022-09-26T04:11:45.338Z,13.10
2022-09-26T04:14:12.032Z,13.10
2022-09-26T04:16:38.779Z,13.00
2022-09-26T04:19:05.510Z,13.10
2022-09-26T04:21:35.627Z,13.00
2022-09-26T04:24:02.925Z,13.00
2022-09-26T04:26:29.589Z,13.00
2022-09-26T04:28:57.803Z,13.10
2022-09-26T04:31:27.628Z,13.00
2022-09-26T04:33:55.391Z,13.00
2022-09-26T04:36:22.515Z,13.00
2022-09-26T04:38:49.543Z,13.10
2022-09-26T04:41:18.900Z,13.00
2022-09-26T04:43:46.122Z,13.00
2022-09-26T04:46:20.837Z,13.00
2022-09-26T04:48:49.896Z,13.00
2022-09-26T04:51:19.161Z,13.00
2022-09-26T04:53:46.676Z,13.00
2022-09-26T04:56:15.114Z,13.00
2022-09-26T04:58:45.780Z,13.00
2022-09-26T05:01:18.052Z,13.00
2022-09-26T05:03:45.259Z,12.90
2022-09-26T05:06:15.643Z,12.80
2022-09-26T05:08:44.645Z,12.80
2022-09-26T05:11:11.407Z,12.80
2022-09-26T05:13:38.875Z,12.80
2022-09-26T05:16:08.823Z,12.80
2022-09-26T05:18:36.971Z,12.80
2022-09-26T05:21:05.923Z,12.80
2022-09-26T05:23:51.525Z,12.80
2022-09-26T05:26:52.240Z,12.80
2022-09-26T05:29:20.391Z,12.80
2022-09-26T05:31:47.615Z,12.80
2022-09-26T05:34:19.486Z,12.80
2022-09-26T05:36:47.240Z,12.70
2022-09-26T05:39:32.554Z,12.70
2022-09-26T05:41:59.580Z,12.70
2022-09-26T05:44:27.401Z,12.70
2022-09-26T05:46:54.338Z,12.70
2022-09-26T05:49:21.082Z,12.70
2022-09-26T05:51:47.817Z,12.70
2022-09-26T05:54:14.682Z,12.70
2022-09-26T05:56:41.420Z,12.70
2022-09-26T05:59:08.062Z,12.70
2022-09-26T06:01:35.000Z,12.60
2022-09-26T06:04:02.975Z,12.60
2022-09-26T06:06:30.357Z,12.60
2022-09-26T06:08:57.162Z,12.70
2022-09-26T06:11:28.753Z,12.80
2022-09-26T06:13:55.923Z,12.80
2022-09-26T06:16:22.858Z,12.90
2022-09-26T06:18:52.458Z,12.90
2022-09-26T06:21:20.239Z,12.90
2022-09-26T06:23:47.111Z,12.90
2022-09-26T06:26:19.271Z,12.90
2022-09-26T06:28:47.169Z,12.90
2022-09-26T06:31:16.725Z,12.90
2022-09-26T06:33:44.149Z,12.90
2022-09-26T06:36:11.893Z,13.00
2022-09-26T06:38:38.901Z,13.00
2022-09-26T06:41:07.348Z,13.00
2022-09-26T06:43:34.289Z,13.00
2022-09-26T06:46:01.216Z,13.00
2022-09-26T06:48:28.249Z,13.00
2022-09-26T06:50:57.134Z,12.90
2022-09-26T06:53:23.909Z,12.90
2022-09-26T06:55:50.749Z,12.80
2022-09-26T06:58:18.166Z,12.80
2022-09-26T07:00:45.150Z,12.80
2022-09-26T07:03:13.501Z,12.70
2022-09-26T07:05:40.233Z,12.70
2022-09-26T07:08:07.021Z,12.70
2022-09-26T07:10:37.797Z,12.70
2022-09-26T07:13:06.657Z,12.70
2022-09-26T07:15:36.097Z,12.70
2022-09-26T07:18:04.671Z,12.70
2022-09-26T07:20:33.991Z,12.70
2022-09-26T07:23:04.538Z,12.70
2022-09-26T07:25:32.033Z,12.80
2022-09-26T07:27:59.786Z,12.80
2022-09-26T07:30:28.210Z,12.90
2022-09-26T07:33:03.559Z,13.00
2022-09-26T07:35:35.475Z,13.00
2022-09-26T07:38:02.508Z,13.10
2022-09-26T07:40:29.232Z,13.20
2022-09-26T07:43:18.455Z,13.20
2022-09-26T07:46:05.289Z,13.40
2022-09-26T07:48:50.610Z,13.50
2022-09-26T07:51:17.286Z,13.60
2022-09-26T07:53:43.923Z,13.70
2022-09-26T07:56:10.651Z,13.80
2022-09-26T07:58:43.204Z,13.70
2022-09-26T08:01:12.721Z,13.80
2022-09-26T08:03:42.101Z,13.70
2022-09-26T08:06:09.401Z,13.60
2022-09-26T08:08:36.938Z,13.60
2022-09-26T08:11:05.614Z,13.50
2022-09-26T08:13:33.015Z,13.30
2022-09-26T08:16:05.612Z,13.30
2022-09-26T08:18:33.582Z,13.20
2022-09-26T08:21:03.771Z,13.30
2022-09-26T08:23:30.444Z,13.30
2022-09-26T08:25:57.114Z,13.20
2022-09-26T08:28:24.016Z,13.20
2022-09-26T08:30:50.817Z,13.20
2022-09-26T08:33:19.047Z,13.30
2022-09-26T08:35:45.709Z,13.20
2022-09-26T08:38:12.547Z,13.30
2022-09-26T08:40:51.670Z,13.30
2022-09-26T08:43:29.989Z,13.50
2022-09-26T08:46:43.325Z,13.60
2022-09-26T08:49:38.940Z,13.80
2022-09-26T08:52:24.902Z,13.90
2022-09-26T08:54:54.645Z,14.00
2022-09-26T08:57:24.272Z,14.20
2022-09-26T08:59:53.370Z,14.30
2022-09-26T09:02:39.013Z,14.30
2022-09-26T09:05:08.802Z,14.50
2022-09-26T09:07:35.472Z,14.60
2022-09-26T09:10:06.103Z,14.70
2022-09-26T09:12:58.470Z,14.80
2022-09-26T09:15:28.916Z,15.00
2022-09-26T09:18:21.042Z,15.10
2022-09-26T09:20:57.643Z,15.20
2022-09-26T09:23:48.980Z,15.30
2022-09-26T09:29:49.383Z,15.40
2022-09-26T09:32:20.922Z,15.50
2022-09-26T09:34:53.640Z,15.50
2022-09-26T09:37:25.398Z,15.70
2022-09-26T09:39:53.171Z,15.70
2022-09-26T09:42:43.581Z,15.80
2022-09-26T09:45:13.164Z,15.90
2022-09-26T09:47:40.451Z,15.90
2022-09-26T09:50:48.156Z,15.90
2022-09-26T09:53:30.134Z,15.90
2022-09-26T09:56:18.644Z,16.00
2022-09-26T09:59:13.136Z,16.10
2022-09-26T10:01:48.586Z,16.10
2022-09-26T10:04:28.077Z,16.20
2022-09-26T10:06:55.921Z,16.20
2022-09-26T10:09:39.169Z,16.30
2022-09-26T10:12:12.374Z,16.30
2022-09-26T10:14:55.779Z,16.40
2022-09-26T10:17:23.956Z,16.40
2022-09-26T10:19:51.081Z,16.40
2022-09-26T10:22:37.368Z,16.50
2022-09-26T10:25:15.478Z,16.60
2022-09-26T10:27:51.646Z,16.60
2022-09-26T10:30:21.387Z,16.60
2022-09-26T10:32:56.055Z,16.60
2022-09-26T10:35:26.273Z,16.50
2022-09-26T10:38:00.366Z,16.40
2022-09-26T10:40:46.415Z,16.30
2022-09-26T10:43:25.116Z,16.30
2022-09-26T10:45:56.061Z,16.30
2022-09-26T10:48:56.712Z,16.20
2022-09-26T10:51:37.325Z,16.10
2022-09-26T10:54:07.264Z,16.10
2022-09-26T10:56:39.155Z,16.10
2022-09-26T10:59:09.857Z,16.00
2022-09-26T11:01:45.876Z,16.00
2022-09-26T11:04:45.538Z,16.00
2022-09-26T11:07:24.757Z,16.00
2022-09-26T11:10:00.008Z,16.00
2022-09-26T11:12:32.323Z,16.00
2022-09-26T11:15:01.447Z,16.00
2022-09-26T11:17:48.587Z,16.00
2022-09-26T11:20:29.079Z,15.90
2022-09-26T11:23:19.570Z,16.00
2022-09-26T11:26:17.037Z,16.00
2022-09-26T11:28:52.100Z,16.10
2022-09-26T11:31:28.659Z,16.10
2022-09-26T11:33:59.385Z,16.10
2022-09-26T11:36:25.966Z,16.10
2022-09-26T11:38:57.609Z,16.20
2022-09-26T11:41:57.439Z,16.40
2022-09-26T11:44:34.507Z,16.50
2022-09-26T11:47:03.889Z,16.50
2022-09-26T11:49:36.604Z,16.60
2022-09-26T11:52:22.116Z,16.70
2022-09-26T11:55:24.158Z,16.90
2022-09-26T11:58:10.189Z,17.10
2022-09-26T12:00:48.867Z,17.20
2022-09-26T12:03:47.268Z,17.20
2022-09-26T12:06:20.245Z,17.20
2022-09-26T12:08:57.961Z,17.30
2022-09-26T12:11:45.593Z,17.30
2022-09-26T12:14:56.934Z,17.40
2022-09-26T12:17:54.089Z,17.40
2022-09-26T12:20:32.771Z,17.40
2022-09-26T12:23:37.754Z,17.50
2022-09-26T12:26:14.508Z,17.50
2022-09-26T12:29:09.293Z,17.50
2022-09-26T12:31:44.855Z,17.50
2022-09-26T12:34:23.467Z,17.50
2022-09-26T12:37:23.353Z,17.40
2022-09-26T12:40:10.252Z,17.40
2022-09-26T12:43:07.744Z,17.30
2022-09-26T12:46:03.027Z,17.20
2022-09-26T12:48:40.858Z,17.10
2022-09-26T12:51:28.740Z,17.10
2022-09-26T12:54:20.788Z,17.10
2022-09-26T12:56:55.712Z,17.10
2022-09-26T12:59:46.421Z,17.00
2022-09-26T13:02:48.332Z,17.00
2022-09-26T13:05:22.543Z,17.10
2022-09-26T13:08:26.410Z,17.00
2022-09-26T13:10:59.254Z,17.00
2022-09-26T13:13:37.787Z,17.00
2022-09-26T13:16:13.320Z,17.00
2022-09-26T13:18:50.005Z,17.00
2022-09-26T13:21:24.738Z,17.00
2022-09-26T13:24:07.183Z,17.00
2022-09-26T13:26:45.102Z,17.00
2022-09-26T13:29:27.816Z,17.00
2022-09-26T13:32:10.297Z,17.00
2022-09-26T13:35:07.111Z,17.10
2022-09-26T13:38:18.669Z,17.20
2022-09-26T13:41:22.145Z,17.20
2022-09-26T13:43:58.670Z,17.30
2022-09-26T13:46:40.306Z,17.30
2022-09-26T13:49:26.206Z,17.30
2022-09-26T13:52:11.540Z,17.30
2022-09-26T13:55:10.698Z,17.30
2022-09-26T13:58:00.799Z,17.20
2022-09-26T14:00:30.365Z,17.20
2022-09-26T14:03:18.496Z,17.10
2022-09-26T14:05:47.770Z,17.10
2022-09-26T14:08:53.948Z,17.10
2022-09-26T14:11:34.402Z,17.10
2022-09-26T14:14:19.415Z,17.10
2022-09-26T14:16:47.070Z,17.10
2022-09-26T14:19:39.359Z,17.10
2022-09-26T14:22:25.955Z,17.10
2022-09-26T14:24:57.337Z,17.10
2022-09-26T14:27:25.156Z,17.10
2022-09-26T14:30:01.120Z,17.10
2022-09-26T14:32:39.653Z,17.00
2022-09-26T14:35:17.571Z,17.10
2022-09-26T14:37:49.268Z,17.10
2022-09-26T14:40:25.203Z,17.10
2022-09-26T14:43:18.696Z,17.10
2022-09-26T14:46:07.325Z,17.00
2022-09-26T14:48:40.011Z,17.00
2022-09-26T14:51:25.947Z,17.00
2022-09-26T14:53:57.893Z,17.00
2022-09-26T14:56:27.506Z,16.90
2022-09-26T14:59:14.747Z,16.90
2022-09-26T15:01:42.802Z,16.90
2022-09-26T15:04:15.618Z,16.90
2022-09-26T15:06:50.727Z,16.90
2022-09-26T15:09:56.585Z,16.90
2022-09-26T15:12:39.049Z,16.90
2022-09-26T15:15:32.465Z,16.90
2022-09-26T15:18:34.681Z,16.90
2022-09-26T15:21:12.362Z,16.90
2022-09-26T15:23:46.809Z,16.80
2022-09-26T15:26:17.278Z,16.70
2022-09-26T15:28:48.133Z,16.70
2022-09-26T15:31:20.525Z,16.70
2022-09-26T15:33:55.162Z,16.70
2022-09-26T15:36:21.973Z,16.60
2022-09-26T15:38:49.269Z,16.60
2022-09-26T15:41:38.234Z,16.50
2022-09-26T15:44:22.707Z,16.50
2022-09-26T15:46:50.462Z,16.50
2022-09-26T15:49:24.570Z,16.30
2022-09-26T15:51:56.495Z,16.40
2022-09-26T15:54:33.120Z,16.40
2022-09-26T15:57:06.747Z,16.40
2022-09-26T15:59:41.299Z,16.30
2022-09-26T16:02:26.577Z,16.30
2022-09-26T16:04:54.881Z,16.20
2022-09-26T16:07:27.151Z,16.20
2022-09-26T16:09:56.193Z,16.10
2022-09-26T16:12:30.369Z,16.00
2022-09-26T16:15:05.494Z,16.10
2022-09-26T16:17:35.891Z,15.90
2022-09-26T16:20:21.857Z,15.90
2022-09-26T16:23:04.405Z,15.90
2022-09-26T16:25:53.534Z,15.80
2022-09-26T16:28:39.475Z,15.80
2022-09-26T16:31:08.363Z,15.80
2022-09-26T16:33:38.907Z,15.70
2022-09-26T16:36:11.825Z,15.70
2022-09-26T16:38:38.654Z,15.60
2022-09-26T16:42:00.160Z,15.60
2022-09-26T16:44:37.272Z,15.60
2022-09-26T16:47:07.619Z,15.50
2022-09-26T16:49:45.985Z,15.90
2022-09-26T16:52:34.501Z,15.80
2022-09-26T16:55:07.301Z,15.50
2022-09-26T16:57:39.406Z,16.00
2022-09-26T17:00:42.583Z,15.50
2022-09-26T17:03:32.339Z,15.40
2022-09-26T17:06:02.437Z,15.40
2022-09-26T17:08:32.475Z,15.40
2022-09-26T17:11:04.481Z,15.40
2022-09-26T17:13:35.191Z,15.30
2022-09-26T17:16:03.377Z,15.30
2022-09-26T17:18:33.212Z,15.30
2022-09-26T17:21:00.514Z,15.30
2022-09-26T17:23:39.790Z,15.30
2022-09-26T17:26:07.781Z,15.30
2022-09-26T17:28:42.641Z,15.00
2022-09-26T17:31:19.893Z,15.10
2022-09-26T17:33:49.310Z,15.20
2022-09-26T17:36:25.502Z,15.10
2022-09-26T17:38:52.283Z,15.10
2022-09-26T17:41:19.068Z,15.10
2022-09-26T17:43:50.974Z,15.00
2022-09-26T17:46:18.049Z,15.10
2022-09-26T17:48:44.867Z,15.10
2022-09-26T17:51:25.382Z,15.30
2022-09-26T17:53:52.735Z,15.20
2022-09-26T17:56:20.220Z,15.00
2022-09-26T17:58:48.137Z,15.00
2022-09-26T18:01:22.418Z,15.00
2022-09-26T18:03:52.113Z,15.00
2022-09-26T18:06:23.977Z,15.00
2022-09-26T18:08:52.393Z,14.90
2022-09-26T18:11:19.493Z,15.00
2022-09-26T18:13:54.660Z,15.00
2022-09-26T18:16:27.640Z,14.90
2022-09-26T18:18:54.693Z,15.00
2022-09-26T18:21:24.204Z,15.00
2022-09-26T18:23:55.654Z,14.90
2022-09-26T18:26:28.778Z,15.00
2022-09-26T18:28:57.589Z,14.90
2022-09-26T18:31:30.744Z,14.90
2022-09-26T18:33:58.215Z,14.90
2022-09-26T18:36:26.203Z,14.80
2022-09-26T18:38:53.176Z,14.80
2022-09-26T18:41:26.371Z,14.90
2022-09-26T18:43:55.870Z,14.80
2022-09-26T18:46:23.587Z,14.80
2022-09-26T18:49:08.150Z,14.80
2022-09-26T18:51:38.095Z,14.70
2022-09-26T18:54:11.601Z,14.80
2022-09-26T18:57:12.257Z,14.80
2022-09-26T18:59:38.892Z,14.80
2022-09-26T19:02:19.934Z,14.80
2022-09-26T19:04:46.886Z,14.60
2022-09-26T19:07:21.098Z,14.60
2022-09-26T19:09:49.577Z,14.30
2022-09-26T19:13:02.526Z,14.10
2022-09-26T19:15:33.250Z,13.90
2022-09-26T19:17:59.994Z,13.80
2022-09-26T19:20:26.790Z,13.70
2022-09-26T19:22:58.567Z,13.70
2022-09-26T19:25:27.089Z,13.70
2022-09-26T19:27:53.900Z,13.80
2022-09-26T19:30:21.999Z,13.60
2022-09-26T19:32:51.772Z,13.70
2022-09-26T19:35:29.418Z,13.70
2022-09-26T19:37:57.447Z,13.70
2022-09-26T19:40:24.902Z,13.50
2022-09-26T19:42:51.949Z,13.50
2022-09-26T19:45:19.774Z,13.50
2022-09-26T19:47:49.925Z,13.60
2022-09-26T19:50:22.045Z,13.50
2022-09-26T19:52:50.724Z,13.50
2022-09-26T19:55:25.679Z,13.50
2022-09-26T19:58:15.626Z,13.50
2022-09-26T20:00:44.788Z,13.50
2022-09-26T20:03:17.790Z,13.40
2022-09-26T20:05:46.631Z,13.40
2022-09-26T20:08:22.192Z,13.40
2022-09-26T20:10:56.094Z,13.30
2022-09-26T20:13:22.716Z,13.30
2022-09-26T20:15:50.005Z,13.30
2022-09-26T20:18:20.727Z,13.20
2022-09-26T20:20:56.777Z,13.20
2022-09-26T20:23:26.738Z,13.20
2022-09-26T20:25:54.977Z,13.10
2022-09-26T20:28:21.850Z,13.10
2022-09-26T20:30:51.460Z,13.10
2022-09-26T20:33:21.748Z,13.10
2022-09-26T20:35:53.878Z,13.10
2022-09-26T20:38:33.648Z,13.00
2022-09-26T20:41:35.879Z,13.00
2022-09-26T20:44:06.009Z,13.10
2022-09-26T20:46:36.503Z,13.10
2022-09-26T20:49:07.161Z,13.10
2022-09-26T20:51:35.083Z,13.10
2022-09-26T20:54:02.788Z,13.00
2022-09-26T20:56:29.824Z,13.10
2022-09-26T20:58:56.465Z,13.10
2022-09-26T21:01:23.359Z,13.00
2022-09-26T21:03:52.184Z,12.90
2022-09-26T21:06:24.740Z,13.00
2022-09-26T21:08:51.392Z,13.00
2022-09-26T21:11:20.219Z,13.00
2022-09-26T21:13:47.208Z,13.00
2022-09-26T21:16:15.453Z,13.00
2022-09-26T21:18:45.115Z,13.00
2022-09-26T21:21:29.033Z,13.00
2022-09-26T21:23:56.347Z,13.00
2022-09-26T21:26:25.489Z,13.00
2022-09-26T21:28:53.899Z,13.00
2022-09-26T21:31:22.827Z,13.00
2022-09-26T21:33:50.073Z,13.00
2022-09-26T21:36:19.198Z,12.90
2022-09-26T21:38:45.848Z,13.00
2022-09-26T21:41:12.719Z,13.00
2022-09-26T21:43:44.417Z,13.00
2022-09-26T21:46:11.159Z,13.00
2022-09-26T21:48:37.872Z,13.00
2022-09-26T21:51:04.914Z,12.90
2022-09-26T21:53:38.813Z,13.00
2022-09-26T21:56:10.960Z,12.90
2022-09-26T21:58:40.462Z,13.00
2022-09-26T22:01:07.615Z,13.00
2022-09-26T22:03:35.527Z,13.00
2022-09-26T22:06:07.557Z,13.00
2022-09-26T22:08:34.558Z,13.00
2022-09-26T22:11:03.154Z,12.90
2022-09-26T22:13:30.531Z,13.00
2022-09-26T22:16:04.959Z,13.00
2022-09-26T22:18:34.145Z,12.90
2022-09-26T22:21:01.392Z,12.80
2022-09-26T22:23:28.048Z,12.80
2022-09-26T22:25:54.786Z,12.80
2022-09-26T22:28:22.107Z,12.80
2022-09-26T22:30:48.868Z,12.80
2022-09-26T22:33:17.994Z,12.70
2022-09-26T22:35:51.306Z,12.70
2022-09-26T22:38:18.507Z,12.70
2022-09-26T22:40:46.292Z,12.70
2022-09-26T22:43:12.961Z,12.70
2022-09-26T22:45:39.688Z,12.70
2022-09-26T22:48:06.349Z,12.70
2022-09-26T22:50:33.044Z,12.70
2022-09-26T22:52:59.784Z,12.70
2022-09-26T22:55:26.596Z,12.70
2022-09-26T22:57:53.380Z,12.70
2022-09-26T23:00:20.102Z,12.70
2022-09-26T23:02:46.838Z,12.70
2022-09-26T23:05:13.565Z,12.70
2022-09-26T23:07:40.222Z,12.80
2022-09-26T23:10:07.545Z,12.80
2022-09-26T23:12:34.541Z,12.80
2022-09-26T23:15:01.248Z,12.80
2022-09-26T23:17:28.201Z,12.90
2022-09-26T23:19:54.918Z,12.90
2022-09-26T23:22:21.618Z,12.90
2022-09-26T23:24:48.230Z,12.90
2022-09-26T23:27:14.865Z,12.90
2022-09-26T23:29:41.729Z,12.90
2022-09-26T23:32:08.444Z,12.90
2022-09-26T23:34:35.085Z,12.90
2022-09-26T23:37:01.711Z,12.90
2022-09-26T23:39:28.421Z,12.90
2022-09-26T23:41:55.038Z,12.80
2022-09-26T23:44:21.835Z,12.80
2022-09-26T23:46:48.504Z,12.80
2022-09-26T23:49:15.175Z,12.80
2022-09-26T23:51:42.403Z,12.80
2022-09-26T23:54:09.164Z,12.80
2022-09-26T23:56:35.813Z,12.80
2022-09-26T23:59:02.504Z,12.80
